createdAt,value
2018-07-19T00:04:10.071Z,63.40
2018-07-19T00:09:39.373Z,63.60
2018-07-19T00:15:08.796Z,63.80
2018-07-19T00:20:38.027Z,64.10
2018-07-19T00:26:08.390Z,64.30
2018-07-19T00:31:37.586Z,64.50
2018-07-19T00:37:12.560Z,64.80
2018-07-19T00:42:41.902Z,65.00
2018-07-19T00:48:12.216Z,65.20
2018-07-19T00:53:41.463Z,65.30
2018-07-19T00:59:10.791Z,65.70
2018-07-19T01:04:40.056Z,65.70
2018-07-19T01:10:10.682Z,65.60
2018-07-19T01:15:39.978Z,65.90
2018-07-19T01:21:09.238Z,66.00
2018-07-19T01:26:38.475Z,66.20
2018-07-19T01:32:08.003Z,66.70
2018-07-19T01:37:37.219Z,66.50
2018-07-19T01:43:06.429Z,66.60
2018-07-19T01:48:35.667Z,66.80
2018-07-19T01:54:05.124Z,67.10
2018-07-19T01:59:34.572Z,67.30
2018-07-19T02:05:04.217Z,67.20
2018-07-19T02:10:33.450Z,67.20
2018-07-19T02:16:02.721Z,67.20
2018-07-19T02:21:31.989Z,67.30
2018-07-19T02:27:02.047Z,67.40
2018-07-19T02:32:32.083Z,67.50
2018-07-19T02:38:01.320Z,67.40
2018-07-19T02:43:31.675Z,67.30
2018-07-19T02:49:01.073Z,67.40
2018-07-19T02:54:31.037Z,67.40
2018-07-19T03:00:03.806Z,67.50
2018-07-19T03:05:34.162Z,67.60
2018-07-19T03:11:03.425Z,67.70
2018-07-19T03:16:32.793Z,67.70
2018-07-19T03:22:02.079Z,67.70
2018-07-19T03:27:31.298Z,67.90
2018-07-19T03:33:00.553Z,68.00
2018-07-19T03:38:29.871Z,67.90
2018-07-19T03:43:59.183Z,68.10
2018-07-19T03:49:28.407Z,68.30
2018-07-19T03:54:57.674Z,68.40
2018-07-19T04:00:26.980Z,68.40
2018-07-19T04:05:56.320Z,68.60
2018-07-19T04:11:25.569Z,68.50
2018-07-19T04:16:54.895Z,68.80
2018-07-19T04:22:24.372Z,68.90
2018-07-19T04:27:54.443Z,69.10
2018-07-19T04:33:24.757Z,69.00
2018-07-19T04:38:54.024Z,69.30
2018-07-19T04:44:23.395Z,69.30
2018-07-19T04:49:53.863Z,69.40
2018-07-19T04:55:24.294Z,69.20
2018-07-19T05:00:53.558Z,69.40
2018-07-19T05:06:22.832Z,69.20
2018-07-19T05:11:54.317Z,69.10
2018-07-19T05:17:23.529Z,69.20
2018-07-19T05:22:52.805Z,69.00
2018-07-19T05:28:22.212Z,68.60
2018-07-19T05:33:52.685Z,68.50
2018-07-19T05:39:22.100Z,68.30
2018-07-19T05:44:51.522Z,67.80
2018-07-19T05:50:20.969Z,66.80
2018-07-19T05:55:50.332Z,66.20
2018-07-19T06:01:19.852Z,65.60
2018-07-19T06:06:49.107Z,65.10
2018-07-19T06:12:18.479Z,64.70
2018-07-19T06:28:48.072Z,63.80
2018-07-19T06:34:17.399Z,63.10
2018-07-19T06:39:46.705Z,63.10
2018-07-19T06:45:17.159Z,62.70
2018-07-19T06:50:46.483Z,62.90
2018-07-19T06:56:15.753Z,62.50
2018-07-19T07:01:45.062Z,62.40
2018-07-19T07:07:14.320Z,61.70
2018-07-19T07:12:43.513Z,60.90
2018-07-19T07:18:12.753Z,60.80
2018-07-19T07:23:41.997Z,60.70
2018-07-19T07:29:12.311Z,59.80
2018-07-19T07:34:41.548Z,59.40
2018-07-19T07:40:10.785Z,59.10
2018-07-19T07:45:40.875Z,58.50
2018-07-19T07:51:10.393Z,57.90
2018-07-19T07:56:39.623Z,58.10
2018-07-19T08:02:09.272Z,57.80
2018-07-19T08:07:38.512Z,57.00
2018-07-19T08:13:07.764Z,57.70
2018-07-19T08:18:37.075Z,56.70
2018-07-19T08:24:06.354Z,56.00
2018-07-19T08:29:35.574Z,55.80
2018-07-19T08:35:05.439Z,56.40
2018-07-19T08:40:34.658Z,55.20
2018-07-19T08:51:36.286Z,54.20
2018-07-19T08:57:05.576Z,54.40
2018-07-19T09:02:34.836Z,54.00
2018-07-19T09:08:04.087Z,53.90
2018-07-19T09:13:33.324Z,53.40
2018-07-19T09:19:02.560Z,53.80
2018-07-19T09:24:31.770Z,52.60
2018-07-19T09:30:00.987Z,51.80
2018-07-19T09:35:30.213Z,51.40
2018-07-19T09:40:59.474Z,50.20
2018-07-19T09:46:28.696Z,49.90
2018-07-19T09:51:57.962Z,49.10
2018-07-19T09:57:28.249Z,49.20
2018-07-19T10:02:57.471Z,47.90
2018-07-19T10:08:26.689Z,47.20
2018-07-19T10:13:55.897Z,47.30
2018-07-19T10:19:25.135Z,46.50
2018-07-19T10:24:54.352Z,44.80
2018-07-19T10:30:23.612Z,45.40
2018-07-19T10:35:52.912Z,45.10
2018-07-19T10:41:22.190Z,44.80
2018-07-19T10:46:51.503Z,44.60
2018-07-19T10:52:21.505Z,44.50
2018-07-19T10:57:50.884Z,44.10
2018-07-19T11:03:20.295Z,44.30
2018-07-19T11:08:49.675Z,43.70
2018-07-19T11:14:19.039Z,44.50
2018-07-19T11:19:48.419Z,44.70
2018-07-19T11:25:17.691Z,43.90
2018-07-19T11:30:47.000Z,43.70
2018-07-19T11:36:18.079Z,43.80
2018-07-19T11:41:47.384Z,43.80
2018-07-19T11:47:16.733Z,43.10
2018-07-19T11:52:45.998Z,42.80
2018-07-19T11:58:17.442Z,42.10
2018-07-19T12:03:46.668Z,42.30
2018-07-19T12:09:16.236Z,42.30
2018-07-19T12:14:45.510Z,41.30
2018-07-19T12:20:14.777Z,40.90
2018-07-19T12:25:44.246Z,40.00
2018-07-19T12:31:13.549Z,40.20
2018-07-19T12:36:42.883Z,41.20
2018-07-19T12:42:12.153Z,40.10
2018-07-19T12:47:41.429Z,40.00
2018-07-19T12:53:10.729Z,40.50
2018-07-19T12:58:39.987Z,39.60
2018-07-19T13:04:09.362Z,40.10
2018-07-19T13:09:38.547Z,40.20
2018-07-19T13:15:08.226Z,39.70
2018-07-19T13:20:37.531Z,39.30
2018-07-19T13:26:07.193Z,38.40
2018-07-19T13:31:36.388Z,39.60
2018-07-19T13:37:05.915Z,39.20
2018-07-19T13:42:35.224Z,40.00
2018-07-19T13:48:04.438Z,39.30
2018-07-19T13:53:50.624Z,39.70
2018-07-19T13:59:19.936Z,39.30
2018-07-19T14:04:49.226Z,39.30
2018-07-19T14:10:18.530Z,39.30
2018-07-19T14:15:47.791Z,39.30
2018-07-19T14:21:17.143Z,37.80
2018-07-19T14:26:46.426Z,38.10
2018-07-19T14:32:16.285Z,38.00
2018-07-19T14:37:45.617Z,38.30
2018-07-19T14:43:14.938Z,38.00
2018-07-19T14:54:13.092Z,38.20
2018-07-19T14:59:42.272Z,37.90
2018-07-19T15:10:40.405Z,30.20
2018-07-19T15:16:09.602Z,29.50
2018-07-19T15:21:38.811Z,31.40
2018-07-19T15:27:08.106Z,33.20
2018-07-19T15:32:37.371Z,34.40
2018-07-19T15:38:08.733Z,34.70
2018-07-19T15:43:38.044Z,35.10
2018-07-19T15:49:07.236Z,34.60
2018-07-19T15:54:36.487Z,35.30
2018-07-19T16:00:06.438Z,35.90
2018-07-19T16:05:35.651Z,36.30
2018-07-19T16:11:04.926Z,36.70
2018-07-19T16:16:34.198Z,35.50
2018-07-19T16:22:03.438Z,36.80
2018-07-19T16:27:32.787Z,36.80
2018-07-19T16:33:02.039Z,36.90
2018-07-19T16:38:31.303Z,36.40
2018-07-19T16:44:00.518Z,37.60
2018-07-19T16:49:29.793Z,37.60
2018-07-19T16:54:59.064Z,37.40
2018-07-19T17:00:28.265Z,37.30
2018-07-19T17:05:59.396Z,37.40
2018-07-19T17:11:29.731Z,37.10
2018-07-19T17:16:59.809Z,37.50
2018-07-19T17:22:30.014Z,37.00
2018-07-19T17:28:00.326Z,37.40
2018-07-19T17:33:29.532Z,37.90
2018-07-19T17:38:58.791Z,37.90
2018-07-19T17:44:28.153Z,38.30
2018-07-19T17:49:57.361Z,38.80
2018-07-19T17:55:26.656Z,38.50
2018-07-19T18:00:56.007Z,38.80
2018-07-19T18:06:28.448Z,38.60
2018-07-19T18:11:57.717Z,39.30
2018-07-19T18:17:27.039Z,38.90
2018-07-19T18:22:56.286Z,39.20
2018-07-19T18:28:25.605Z,39.50
2018-07-19T18:33:54.868Z,40.10
2018-07-19T18:39:24.211Z,40.30
2018-07-19T18:44:53.595Z,40.60
2018-07-19T18:50:22.882Z,40.90
2018-07-19T18:55:52.305Z,41.30
2018-07-19T19:01:21.808Z,41.80
2018-07-19T19:06:51.299Z,42.10
2018-07-19T19:12:20.655Z,42.70
2018-07-19T19:17:50.070Z,42.90
2018-07-19T19:23:19.716Z,43.20
2018-07-19T19:28:49.166Z,43.60
2018-07-19T19:34:18.566Z,43.80
2018-07-19T19:39:47.874Z,44.30
2018-07-19T19:45:17.239Z,44.60
2018-07-19T19:50:47.675Z,44.70
2018-07-19T19:56:17.047Z,44.80
2018-07-19T20:01:46.484Z,45.00
2018-07-19T20:07:15.911Z,45.30
2018-07-19T20:12:45.389Z,45.80
2018-07-19T20:18:14.652Z,46.00
2018-07-19T20:23:44.059Z,46.80
2018-07-19T20:29:13.445Z,47.00
2018-07-19T20:34:42.745Z,47.70
2018-07-19T20:40:12.025Z,48.30
2018-07-19T20:45:42.352Z,52.10
2018-07-19T20:51:11.694Z,50.60
2018-07-19T20:56:41.011Z,50.30
2018-07-19T21:02:10.296Z,49.90
2018-07-19T21:07:39.536Z,50.80
2018-07-19T21:13:08.795Z,50.70
2018-07-19T21:18:38.892Z,50.90
2018-07-19T21:24:08.123Z,50.80
2018-07-19T21:29:37.379Z,50.80
2018-07-19T21:35:09.030Z,51.00
2018-07-19T21:40:40.452Z,51.30
2018-07-19T21:46:09.918Z,51.50
2018-07-19T21:51:46.803Z,51.70
2018-07-19T21:57:16.209Z,51.90
2018-07-19T22:02:45.757Z,52.50
2018-07-19T22:08:15.081Z,52.70
2018-07-19T22:13:44.494Z,53.20
2018-07-19T22:19:13.728Z,53.60
2018-07-19T22:24:44.096Z,53.70
2018-07-19T22:30:13.867Z,54.10
2018-07-19T22:35:44.208Z,54.60
2018-07-19T22:41:13.612Z,55.00
2018-07-19T22:46:42.880Z,55.10
2018-07-19T22:52:12.250Z,55.60
2018-07-19T22:57:41.533Z,55.70
2018-07-19T23:03:11.902Z,55.90
2018-07-19T23:08:41.091Z,56.10
2018-07-19T23:14:10.340Z,56.30
2018-07-19T23:19:39.629Z,56.70
2018-07-19T23:25:09.015Z,56.90
2018-07-19T23:30:38.534Z,56.90
2018-07-19T23:36:11.790Z,57.20
2018-07-19T23:41:45.416Z,57.20
2018-07-19T23:47:22.539Z,57.10
2018-07-19T23:52:51.837Z,57.70
2018-07-19T23:58:21.135Z,57.70
